Mimitsu — 3ETU4 — position and weather

sailwx.info

Track history (hours):
 
Tides and Currents Weather Stations Pressure Air Temp Water Temp Dewpoint Dewpoint Depression Visibility Wind Speed Wind Dir Waves Ship Positions

Mimitsu

Last reported at 2018-Feb-11 20:57 UTC. Time now 2018-Feb-22 09:20 UTC.
Position N 36°22' E 014°45'.
Warning: this ship's position is 10 days out of date.

Length 185 m; draft 10.4 m.

Type: Ship. MMSI: 373471000.

Date/timePositionNaut miles runAvg speedWind from/ knotsBaromVisibWave heightAir tempDewpointWater temp
2018-Feb-11 20:57N 36°22' E 014°45'511.5
2018-Feb-11 20:30N 36°24' E 014°39'611.5
2018-Feb-11 20:00N 36°25' E 014°32'611.3
2018-Feb-11 19:29N 36°27' E 014°25'511.2
2018-Feb-11 19:00N 36°29' E 014°19'611.2
2018-Feb-11 18:29N 36°30' E 014°12'611.2
2018-Feb-11 17:56N 36°32' E 014°05'  
2018-Feb-08 09:00N 36°07' W 004°20'1711.3
2018-Feb-08 07:30N 36°04' W 004°40'3112.3
2018-Feb-08 05:00N 36°02' W 005°18'11 0.5
2018-Feb-07 09:29N 35°57' W 005°29'281 9.6
2018-Feb-06 04:23N 38°50' W 010°08'411.0
2018-Feb-06 03:59N 38°54' W 010°08'611.0
2018-Feb-06 03:29N 38°60' W 010°07'511.0
2018-Feb-06 03:00N 39°05' W 010°07'611.0
2018-Feb-06 02:30N 39°10' W 010°07'  
2018-Feb-03 04:01N 49°48' W 003°25'612.5
2018-Feb-03 03:30N 49°51' W 003°17'2013.0
2018-Feb-03 01:58N 50°00' W 002°50'612.7
2018-Feb-03 01:30N 50°02' W 002°41'33 9.2
2018-Feb-02 21:59N 50°11' W 001°52'3 6.8
2018-Feb-02 21:30N 50°11' W 001°47'3 6.8
2018-Feb-02 21:00N 50°12' W 001°42'4 7.2
2018-Feb-02 20:30N 50°13' W 001°36'4 8.1
2018-Feb-02 19:59N 50°15' W 001°30'4312.1
2018-Feb-02 16:24N 50°27' W 000°25'1213.1
2018-Feb-02 15:30N 50°30' W 000°07'1212.4
2018-Feb-02 14:31N 50°33' E 000°11'611.9
2018-Feb-02 14:00N 50°35' E 000°21'3210.2
2018-Feb-02 10:50N 50°51' E 001°04'410.3
2018-Feb-02 10:29N 50°54' E 001°09'511.3
2018-Feb-02 10:00N 50°57' E 001°15'712.7
2018-Feb-02 09:28N 51°02' E 001°23'614.0
2018-Feb-02 09:00N 51°06' E 001°31'714.2
2018-Feb-02 08:30N 51°10' E 001°40'713.5
2018-Feb-02 08:00N 51°15' E 001°47'713.1
2018-Feb-02 07:30N 51°21' E 001°52'612.0
2018-Feb-02 07:01N 51°26' E 001°56'611.0
2018-Feb-02 06:30N 51°31' E 002°02'510.5
2018-Feb-02 06:00N 51°35' E 002°07'5 9.8
2018-Feb-02 05:30N 51°39' E 002°12'  
Track history (hours):
 
Tides and Currents Weather Stations Pressure Air Temp Water Temp Dewpoint Dewpoint Depression Visibility Wind Speed Wind Dir Waves Ship Positions

Mimitsu

Last reported at 2018-Feb-11 20:57 UTC. Time now 2018-Feb-22 09:20 UTC.
Position N 36°22' E 014°45'.
Warning: this ship's position is 10 days out of date.

Length 185 m; draft 10.4 m.

Type: Ship. MMSI: 373471000.

Date/timePositionNaut miles runAvg speedWind from/ knotsBaromVisibWave heightAir tempDewpointWater temp
2018-Feb-11 20:57N 36°22' E 014°45'511.5
2018-Feb-11 20:30N 36°24' E 014°39'611.5
2018-Feb-11 20:00N 36°25' E 014°32'611.3
2018-Feb-11 19:29N 36°27' E 014°25'511.2
2018-Feb-11 19:00N 36°29' E 014°19'611.2
2018-Feb-11 18:29N 36°30' E 014°12'611.2
2018-Feb-11 17:56N 36°32' E 014°05'  
2018-Feb-08 09:00N 36°07' W 004°20'1711.3
2018-Feb-08 07:30N 36°04' W 004°40'3112.3
2018-Feb-08 05:00N 36°02' W 005°18'11 0.5
2018-Feb-07 09:29N 35°57' W 005°29'281 9.6
2018-Feb-06 04:23N 38°50' W 010°08'411.0
2018-Feb-06 03:59N 38°54' W 010°08'611.0
2018-Feb-06 03:29N 38°60' W 010°07'511.0
2018-Feb-06 03:00N 39°05' W 010°07'611.0
2018-Feb-06 02:30N 39°10' W 010°07'  
2018-Feb-03 04:01N 49°48' W 003°25'612.5
2018-Feb-03 03:30N 49°51' W 003°17'2013.0
2018-Feb-03 01:58N 50°00' W 002°50'612.7
2018-Feb-03 01:30N 50°02' W 002°41'33 9.2
2018-Feb-02 21:59N 50°11' W 001°52'3 6.8
2018-Feb-02 21:30N 50°11' W 001°47'3 6.8
2018-Feb-02 21:00N 50°12' W 001°42'4 7.2
2018-Feb-02 20:30N 50°13' W 001°36'4 8.1
2018-Feb-02 19:59N 50°15' W 001°30'4312.1
2018-Feb-02 16:24N 50°27' W 000°25'1213.1
2018-Feb-02 15:30N 50°30' W 000°07'1212.4
2018-Feb-02 14:31N 50°33' E 000°11'611.9
2018-Feb-02 14:00N 50°35' E 000°21'3210.2
2018-Feb-02 10:50N 50°51' E 001°04'410.3
2018-Feb-02 10:29N 50°54' E 001°09'511.3
2018-Feb-02 10:00N 50°57' E 001°15'712.7
2018-Feb-02 09:28N 51°02' E 001°23'614.0
2018-Feb-02 09:00N 51°06' E 001°31'714.2
2018-Feb-02 08:30N 51°10' E 001°40'713.5
2018-Feb-02 08:00N 51°15' E 001°47'713.1
2018-Feb-02 07:30N 51°21' E 001°52'612.0
2018-Feb-02 07:01N 51°26' E 001°56'611.0
2018-Feb-02 06:30N 51°31' E 002°02'510.5
2018-Feb-02 06:00N 51°35' E 002°07'5 9.8
2018-Feb-02 05:30N 51°39' E 002°12'  

Dump ship's entire track history